createdAt,value
2023-03-05T00:01:43.334Z,86.01
2023-03-05T00:06:56.724Z,87.10
2023-03-05T00:12:02.170Z,86.23
2023-03-05T00:17:06.412Z,86.38
2023-03-05T00:22:10.683Z,86.07
2023-03-05T00:27:16.203Z,85.79
2023-03-05T00:32:20.392Z,86.36
2023-03-05T00:37:24.993Z,87.19
2023-03-05T00:42:30.552Z,86.87
2023-03-05T00:47:34.764Z,87.35
2023-03-05T00:52:39.207Z,86.95
2023-03-05T00:57:46.813Z,87.70
2023-03-05T01:02:50.905Z,87.81
2023-03-05T01:07:55.500Z,88.11
2023-03-05T01:13:01.284Z,86.88
2023-03-05T01:18:05.489Z,87.62
2023-03-05T01:23:09.942Z,86.49
2023-03-05T01:28:15.444Z,87.69
2023-03-05T01:33:19.909Z,86.70
2023-03-05T01:38:24.030Z,86.32
2023-03-05T01:43:32.078Z,85.98
2023-03-05T01:48:36.910Z,86.16
2023-03-05T01:53:43.833Z,87.29
2023-03-05T01:58:51.462Z,87.44
2023-03-05T02:03:55.696Z,86.36
2023-03-05T02:09:01.354Z,86.26
2023-03-05T02:14:10.138Z,85.58
2023-03-05T02:19:15.862Z,87.68
2023-03-05T02:24:36.556Z,87.77
2023-03-05T02:29:44.080Z,88.85
2023-03-05T02:34:48.183Z,90.85
2023-03-05T02:39:54.591Z,90.66
2023-03-05T02:44:59.544Z,89.46
2023-03-05T02:50:05.068Z,88.21
2023-03-05T02:55:11.750Z,88.17
2023-03-05T03:00:18.346Z,89.23
2023-03-05T03:05:22.732Z,89.60
2023-03-05T03:10:30.259Z,89.70
2023-03-05T03:15:34.894Z,89.81
2023-03-05T03:20:40.030Z,90.54
2023-03-05T03:25:46.012Z,90.19
2023-03-05T03:30:50.269Z,90.43
2023-03-05T03:35:54.406Z,90.67
2023-03-05T03:40:59.925Z,90.21
2023-03-05T03:46:06.263Z,89.70
2023-03-05T03:51:10.736Z,87.71
2023-03-05T03:56:16.280Z,87.48
2023-03-05T04:01:20.714Z,87.65
2023-03-05T04:06:25.871Z,86.98
2023-03-05T04:11:31.253Z,87.18
2023-03-05T04:16:36.643Z,87.98
2023-03-05T04:21:41.522Z,88.60
2023-03-05T04:26:47.558Z,87.12
2023-03-05T04:31:51.644Z,87.34
2023-03-05T04:36:56.552Z,86.15
2023-03-05T04:42:02.715Z,86.98
2023-03-05T04:47:07.182Z,88.33
2023-03-05T04:52:13.549Z,87.07
2023-03-05T04:57:19.531Z,86.86
2023-03-05T05:02:24.213Z,89.46
2023-03-05T05:07:29.929Z,87.37
2023-03-05T05:12:39.308Z,87.72
2023-03-05T05:17:43.268Z,88.80
2023-03-05T05:22:47.255Z,87.67
2023-03-05T05:27:53.126Z,87.40
2023-03-05T05:32:58.457Z,88.59
2023-03-05T05:38:05.016Z,88.29
2023-03-05T05:43:10.982Z,87.94
2023-03-05T05:48:15.102Z,88.83
2023-03-05T05:53:19.152Z,86.51
2023-03-05T05:58:26.671Z,85.29
2023-03-05T06:03:30.743Z,83.65
2023-03-05T06:08:35.070Z,83.44
2023-03-05T06:13:41.151Z,83.98
2023-03-05T06:18:45.724Z,83.77
2023-03-05T06:23:51.572Z,83.94
2023-03-05T06:28:57.707Z,82.80
2023-03-05T06:34:02.563Z,81.93
2023-03-05T06:39:07.447Z,81.99
2023-03-05T06:44:14.215Z,82.90
2023-03-05T06:49:20.580Z,82.62
2023-03-05T06:54:24.811Z,81.41
2023-03-05T06:59:30.285Z,81.03
2023-03-05T07:04:34.403Z,80.38
2023-03-05T07:09:43.184Z,78.98
2023-03-05T07:14:55.719Z,76.78
2023-03-05T07:19:59.977Z,73.42
2023-03-05T07:25:04.594Z,72.29
2023-03-05T07:30:11.880Z,71.08
2023-03-05T07:35:18.463Z,70.52
2023-03-05T07:40:23.101Z,70.01
2023-03-05T07:45:28.639Z,70.81
2023-03-05T07:50:33.414Z,70.74
2023-03-05T07:55:44.355Z,66.48
2023-03-05T08:00:50.546Z,63.84
2023-03-05T08:05:55.097Z,61.55
2023-03-05T08:11:05.318Z,61.40
2023-03-05T08:16:15.835Z,58.84
2023-03-05T08:21:48.266Z,59.16
2023-03-05T08:27:05.780Z,59.60
2023-03-05T08:32:15.804Z,57.87
2023-03-05T08:37:25.192Z,58.52
2023-03-05T08:42:31.289Z,58.06
2023-03-05T08:47:41.606Z,57.61
2023-03-05T08:52:46.147Z,60.08
2023-03-05T08:57:50.747Z,58.78
2023-03-05T09:03:11.019Z,59.04
2023-03-05T09:08:24.484Z,52.66
2023-03-05T09:13:35.011Z,50.86
2023-03-05T09:18:44.696Z,52.39
2023-03-05T09:23:49.122Z,51.77
2023-03-05T09:28:54.924Z,51.50
2023-03-05T09:34:01.139Z,51.35
2023-03-05T09:39:17.058Z,51.50
2023-03-05T09:44:34.311Z,52.48
2023-03-05T09:49:52.474Z,52.01
2023-03-05T09:54:59.796Z,51.07
2023-03-05T10:00:09.656Z,51.20
2023-03-05T10:05:22.334Z,50.37
2023-03-05T10:10:32.994Z,49.99
2023-03-05T10:15:50.578Z,49.31
2023-03-05T10:21:02.777Z,49.01
2023-03-05T10:26:37.665Z,48.77
2023-03-05T10:31:58.761Z,47.69
2023-03-05T10:37:32.106Z,46.80
2023-03-05T10:42:48.427Z,45.02
2023-03-05T10:48:03.146Z,44.63
2023-03-05T10:53:18.198Z,44.39
2023-03-05T10:58:24.631Z,42.17
2023-03-05T11:03:49.022Z,40.94
2023-03-05T11:08:55.772Z,41.18
2023-03-05T11:14:02.555Z,40.97
2023-03-05T11:19:19.453Z,43.29
2023-03-05T11:24:25.410Z,43.16
2023-03-05T11:29:32.453Z,43.69
2023-03-05T11:34:36.656Z,43.08
2023-03-05T11:39:42.865Z,42.93
2023-03-05T11:44:50.638Z,43.14
2023-03-05T11:50:03.094Z,42.52
2023-03-05T11:55:16.032Z,42.31
2023-03-05T12:00:26.384Z,40.60
2023-03-05T12:05:32.500Z,39.92
2023-03-05T12:10:37.922Z,39.59
2023-03-05T12:16:02.059Z,38.83
2023-03-05T12:21:09.762Z,39.25
2023-03-05T12:26:16.298Z,39.27
2023-03-05T12:31:37.976Z,38.44
2023-03-05T12:36:43.727Z,38.58
2023-03-05T12:41:50.047Z,38.41
2023-03-05T12:47:23.900Z,38.45
2023-03-05T12:52:31.094Z,39.22
2023-03-05T12:57:41.101Z,39.21
2023-03-05T13:02:49.631Z,40.69
2023-03-05T13:07:54.014Z,40.75
2023-03-05T13:12:59.736Z,39.96
2023-03-05T13:18:08.788Z,39.50
2023-03-05T13:23:21.101Z,40.09
2023-03-05T13:28:27.524Z,40.49
2023-03-05T13:33:34.546Z,41.22
2023-03-05T13:38:45.172Z,39.83
2023-03-05T13:43:53.684Z,39.72
2023-03-05T13:49:18.942Z,39.73
2023-03-05T13:54:24.620Z,39.28
2023-03-05T13:59:32.954Z,38.56
2023-03-05T14:04:39.543Z,39.56
2023-03-05T14:09:50.621Z,39.37
2023-03-05T14:14:59.404Z,38.78
2023-03-05T14:20:25.011Z,39.57
2023-03-05T14:25:39.796Z,40.32
2023-03-05T14:30:48.769Z,40.24
2023-03-05T14:35:54.057Z,41.45
2023-03-05T14:40:58.632Z,41.77
2023-03-05T14:46:05.997Z,42.28
2023-03-05T14:51:12.975Z,42.80
2023-03-05T14:56:23.822Z,43.21
2023-03-05T15:01:29.702Z,42.07
2023-03-05T15:06:38.203Z,41.70
2023-03-05T15:11:42.505Z,42.44
2023-03-05T15:16:51.496Z,42.64
2023-03-05T15:21:55.784Z,42.13
2023-03-05T15:26:59.916Z,42.24
2023-03-05T15:32:07.735Z,42.56
2023-03-05T15:37:12.740Z,43.43
2023-03-05T15:42:17.474Z,41.76
2023-03-05T15:47:23.023Z,43.34
2023-03-05T15:52:28.843Z,44.70
2023-03-05T15:57:37.831Z,44.22
2023-03-05T16:02:44.062Z,44.30
2023-03-05T16:07:51.819Z,44.73
2023-03-05T16:12:59.055Z,46.03
2023-03-05T16:18:09.521Z,46.83
2023-03-05T16:23:13.827Z,48.03
2023-03-05T16:28:17.876Z,49.22
2023-03-05T16:33:23.702Z,49.25
2023-03-05T16:38:28.155Z,49.91
2023-03-05T16:43:32.353Z,49.87
2023-03-05T16:48:38.898Z,49.99
2023-03-05T16:53:43.854Z,50.73
2023-03-05T16:58:51.399Z,51.39
2023-03-05T17:04:02.253Z,51.40
2023-03-05T17:09:07.559Z,51.28
2023-03-05T17:14:11.678Z,51.44
2023-03-05T17:19:17.163Z,51.29
2023-03-05T17:24:22.726Z,51.72
2023-03-05T17:29:27.423Z,52.18
2023-03-05T17:34:36.932Z,52.21
2023-03-05T17:39:42.391Z,52.17
2023-03-05T17:50:01.083Z,51.92
2023-03-05T17:55:09.166Z,52.03
2023-03-05T18:00:16.259Z,52.14
2023-03-05T18:05:24.603Z,52.05
2023-03-05T18:10:33.816Z,51.96
2023-03-05T18:15:41.898Z,51.79
2023-03-05T18:20:48.857Z,52.25
2023-03-05T18:25:54.834Z,52.25
2023-03-05T18:30:59.696Z,53.29
2023-03-05T18:36:06.693Z,54.09
2023-03-05T18:41:18.084Z,53.37
2023-03-05T18:46:23.074Z,54.43
2023-03-05T18:51:31.013Z,54.70
2023-03-05T18:56:36.822Z,54.51
2023-03-05T19:01:41.876Z,54.73
2023-03-05T19:06:49.834Z,55.65
2023-03-05T19:11:55.556Z,54.83
2023-03-05T19:17:00.414Z,55.09
2023-03-05T19:22:07.679Z,55.88
2023-03-05T19:27:14.601Z,57.60
2023-03-05T19:32:21.124Z,58.55
2023-03-05T19:37:26.801Z,60.18
2023-03-05T19:42:31.332Z,61.24
2023-03-05T19:47:35.661Z,62.14
2023-03-05T19:52:42.307Z,63.13
2023-03-05T19:57:46.652Z,64.00
2023-03-05T20:02:50.635Z,64.12
2023-03-05T20:07:56.399Z,64.58
2023-03-05T20:13:00.570Z,65.12
2023-03-05T20:18:05.196Z,66.35
2023-03-05T20:23:10.976Z,65.98
2023-03-05T20:28:15.310Z,65.75
2023-03-05T20:33:19.584Z,65.98
2023-03-05T20:38:26.499Z,66.36
2023-03-05T20:43:33.715Z,66.27
2023-03-05T20:48:38.251Z,66.19
2023-03-05T20:53:44.164Z,66.22
2023-03-05T20:58:49.115Z,65.61
2023-03-05T21:03:57.311Z,66.15
2023-03-05T21:09:05.661Z,66.03
2023-03-05T21:14:11.078Z,66.48
2023-03-05T21:19:15.494Z,66.46
2023-03-05T21:25:21.141Z,65.67
2023-03-05T21:30:31.716Z,65.79
2023-03-05T21:35:36.552Z,66.00
2023-03-05T21:40:48.927Z,65.75
2023-03-05T21:45:55.003Z,65.73
2023-03-05T21:50:59.745Z,66.17
2023-03-05T21:56:28.416Z,65.57
2023-03-05T22:01:32.735Z,66.12
2023-03-05T22:06:37.183Z,66.12
2023-03-05T22:11:44.195Z,66.13
2023-03-05T22:16:52.208Z,66.98
2023-03-05T22:21:57.563Z,66.31
2023-03-05T22:27:03.417Z,66.03
2023-03-05T22:32:07.701Z,64.62
2023-03-05T22:37:11.779Z,65.37
2023-03-05T22:42:17.593Z,65.75
2023-03-05T22:47:23.133Z,65.67
2023-03-05T22:52:27.956Z,66.96
2023-03-05T22:57:37.723Z,65.98
2023-03-05T23:02:42.545Z,66.07
2023-03-05T23:07:47.489Z,66.96
2023-03-05T23:12:54.946Z,67.68
2023-03-05T23:18:00.259Z,68.33
2023-03-05T23:23:05.767Z,68.64
2023-03-05T23:28:11.212Z,67.99
2023-03-05T23:33:18.556Z,68.40
2023-03-05T23:38:24.698Z,68.19
2023-03-05T23:43:30.720Z,68.92
2023-03-05T23:48:35.115Z,70.16
2023-03-05T23:53:39.263Z,69.89
2023-03-05T23:58:45.365Z,70.26
